createdAt,value
2019-03-01T00:00:23.517Z,0
2019-03-01T00:01:33.219Z,0
2019-03-01T00:02:42.905Z,0
2019-03-01T00:03:52.851Z,0
2019-03-01T00:05:02.681Z,0
2019-03-01T00:06:12.629Z,0
2019-03-01T00:07:21.827Z,0
2019-03-01T00:08:31.521Z,0
2019-03-01T00:09:40.954Z,0
2019-03-01T00:10:50.661Z,0
2019-03-01T00:12:00.365Z,0
2019-03-01T00:13:10.366Z,0
2019-03-01T00:14:20.291Z,0
2019-03-01T00:15:30.228Z,0
2019-03-01T00:16:39.934Z,0
2019-03-01T00:17:49.624Z,0
2019-03-01T00:18:59.591Z,0
2019-03-01T00:20:09.275Z,0
2019-03-01T00:21:19.208Z,0
2019-03-01T00:22:29.140Z,0
2019-03-01T00:23:38.834Z,0
2019-03-01T00:24:48.535Z,0
2019-03-01T00:25:58.499Z,0
2019-03-01T00:27:08.191Z,0
2019-03-01T00:28:17.878Z,0
2019-03-01T00:29:27.609Z,0
2019-03-01T00:30:37.601Z,0
2019-03-01T00:31:47.295Z,0
2019-03-01T00:32:56.741Z,0
2019-03-01T00:34:06.433Z,0
2019-03-01T00:35:16.406Z,0
2019-03-01T00:36:26.382Z,0
2019-03-01T00:37:36.333Z,0
2019-03-01T00:38:46.277Z,0
2019-03-01T00:39:56.220Z,0
2019-03-01T00:41:06.170Z,0
2019-03-01T00:42:16.130Z,0
2019-03-01T00:43:26.092Z,0
2019-03-01T00:44:36.149Z,0
2019-03-01T00:45:45.879Z,0
2019-03-01T00:46:55.892Z,0
2019-03-01T00:48:05.592Z,0
2019-03-01T00:49:15.293Z,0
2019-03-01T00:50:24.990Z,0
2019-03-01T00:51:34.716Z,0
2019-03-01T00:52:44.918Z,0
2019-03-01T00:53:54.631Z,0
2019-03-01T00:55:04.315Z,0
2019-03-01T00:56:13.775Z,0
2019-03-01T00:57:23.470Z,0
2019-03-01T00:58:33.419Z,0
2019-03-01T00:59:43.128Z,0
2019-03-01T01:00:53.073Z,0
2019-03-01T01:02:03.008Z,0
2019-03-01T01:03:12.713Z,0
2019-03-01T01:04:22.409Z,0
2019-03-01T01:05:32.351Z,0
2019-03-01T01:06:42.289Z,0
2019-03-01T01:07:51.741Z,0
2019-03-01T01:09:01.693Z,0
2019-03-01T01:10:11.676Z,0
2019-03-01T01:11:21.619Z,0
2019-03-01T01:12:31.570Z,0
2019-03-01T01:13:41.503Z,0
2019-03-01T01:14:50.951Z,0
2019-03-01T01:16:00.635Z,0
2019-03-01T01:17:10.568Z,0
2019-03-01T01:18:20.519Z,0
2019-03-01T01:19:30.217Z,0
2019-03-01T01:20:40.175Z,0
2019-03-01T01:21:50.162Z,0
2019-03-01T01:22:59.857Z,0
2019-03-01T01:24:09.535Z,0
2019-03-01T01:25:19.234Z,0
2019-03-01T01:26:29.171Z,0
2019-03-01T01:27:40.952Z,0
2019-03-01T01:28:50.782Z,0
2019-03-01T01:30:00.727Z,0
2019-03-01T01:31:10.436Z,0
2019-03-01T01:32:20.155Z,0
2019-03-01T01:33:30.136Z,0
2019-03-01T01:34:40.082Z,0
2019-03-01T01:35:50.025Z,0
2019-03-01T01:36:59.965Z,0
2019-03-01T01:38:09.671Z,0
2019-03-01T01:39:19.616Z,0
2019-03-01T01:40:30.801Z,0
2019-03-01T01:41:40.566Z,0
2019-03-01T01:42:50.522Z,0
2019-03-01T01:44:00.224Z,0
2019-03-01T01:45:09.952Z,0
2019-03-01T01:46:19.911Z,0
2019-03-01T01:47:29.610Z,0
2019-03-01T01:48:39.300Z,0
2019-03-01T01:49:48.998Z,0
2019-03-01T01:50:58.701Z,0
2019-03-01T01:52:08.383Z,0
2019-03-01T01:53:18.326Z,0
2019-03-01T01:54:27.764Z,0
2019-03-01T01:55:37.711Z,0
2019-03-01T01:56:47.665Z,0
2019-03-01T01:57:57.611Z,0
2019-03-01T01:59:07.049Z,0
2019-03-01T02:00:17.002Z,0
2019-03-01T02:01:26.981Z,0
2019-03-01T02:02:36.677Z,0
2019-03-01T02:03:46.112Z,0
2019-03-01T02:04:55.844Z,0
2019-03-01T02:06:05.785Z,0
2019-03-01T02:07:15.726Z,0
2019-03-01T02:08:25.418Z,0
2019-03-01T02:09:35.137Z,0
2019-03-01T02:10:45.098Z,0
2019-03-01T02:11:55.047Z,0
2019-03-01T02:13:05.010Z,0
2019-03-01T02:14:14.954Z,0
2019-03-01T02:15:24.392Z,0
2019-03-01T02:16:33.846Z,0
2019-03-01T02:17:43.775Z,0
2019-03-01T02:19:02.464Z,0
2019-03-01T02:20:12.417Z,0
2019-03-01T02:21:22.115Z,0
2019-03-01T02:22:32.055Z,0
2019-03-01T02:23:42.635Z,0
2019-03-01T02:24:52.101Z,0
2019-03-01T02:26:02.051Z,0
2019-03-01T02:27:11.494Z,0
2019-03-01T02:28:21.464Z,0
2019-03-01T02:29:31.160Z,0
2019-03-01T02:30:41.121Z,0
2019-03-01T02:31:51.091Z,0
2019-03-01T02:33:01.046Z,0
2019-03-01T02:34:10.757Z,0
2019-03-01T02:35:20.752Z,0
2019-03-01T02:36:30.460Z,0
2019-03-01T02:37:40.410Z,0
2019-03-01T02:38:50.110Z,0
2019-03-01T02:40:00.175Z,0
2019-03-01T02:41:10.370Z,0
2019-03-01T02:42:20.331Z,0
2019-03-01T02:43:30.294Z,0
2019-03-01T02:44:40.236Z,0
2019-03-01T02:45:49.960Z,0
2019-03-01T02:46:59.666Z,0
2019-03-01T02:48:09.617Z,0
2019-03-01T02:49:19.591Z,0
2019-03-01T02:50:29.564Z,0
2019-03-01T02:51:39.518Z,0
2019-03-01T02:52:49.482Z,0
2019-03-01T02:53:59.458Z,0
2019-03-01T02:55:09.196Z,0
2019-03-01T02:56:18.954Z,0
2019-03-01T02:57:28.677Z,0
2019-03-01T02:58:38.474Z,0
2019-03-01T02:59:48.198Z,0
2019-03-01T03:00:58.195Z,0
2019-03-01T03:02:08.189Z,0
2019-03-01T03:03:18.169Z,0
2019-03-01T03:04:28.108Z,0
2019-03-01T03:05:37.797Z,0
2019-03-01T03:06:47.858Z,0
2019-03-01T03:07:57.828Z,0
2019-03-01T03:09:07.803Z,0
2019-03-01T03:10:17.523Z,0
2019-03-01T03:11:27.525Z,0
2019-03-01T03:12:37.482Z,0
2019-03-01T03:13:47.461Z,0
2019-03-01T03:14:57.484Z,0
2019-03-01T03:16:07.219Z,0
2019-03-01T03:17:16.965Z,0
2019-03-01T03:18:26.684Z,0
2019-03-01T03:19:36.659Z,0
2019-03-01T03:20:46.633Z,0
2019-03-01T03:21:56.367Z,0
2019-03-01T03:23:06.079Z,0
2019-03-01T03:24:16.092Z,0
2019-03-01T03:25:26.062Z,0
2019-03-01T03:26:35.777Z,0
2019-03-01T03:27:45.584Z,0
2019-03-01T03:28:55.446Z,0
2019-03-01T03:30:05.415Z,0
2019-03-01T03:31:15.152Z,0
2019-03-01T03:32:25.127Z,0
2019-03-01T03:33:35.113Z,0
2019-03-01T03:34:45.184Z,0
2019-03-01T03:35:55.166Z,0
2019-03-01T03:37:05.141Z,0
2019-03-01T03:38:15.104Z,0
2019-03-01T03:39:24.314Z,0
2019-03-01T03:40:34.285Z,0
2019-03-01T03:41:44.326Z,0
2019-03-01T03:42:54.062Z,0
2019-03-01T03:44:04.012Z,0
2019-03-01T03:45:13.968Z,0
2019-03-01T03:46:23.948Z,0
2019-03-01T03:47:33.927Z,0
2019-03-01T03:48:43.668Z,0
2019-03-01T03:49:53.628Z,0
2019-03-01T03:51:03.582Z,0
2019-03-01T03:52:13.568Z,0
2019-03-01T03:53:23.576Z,0
2019-03-01T03:54:33.035Z,0
2019-03-01T03:55:42.802Z,0
2019-03-01T03:56:52.786Z,0
2019-03-01T03:58:02.512Z,0
2019-03-01T03:59:12.466Z,0
2019-03-01T04:00:22.537Z,0
2019-03-01T04:01:32.279Z,0
2019-03-01T04:02:41.973Z,0
2019-03-01T04:03:51.679Z,0
2019-03-01T04:05:01.432Z,0
2019-03-01T04:06:11.173Z,0
2019-03-01T04:07:20.659Z,0
2019-03-01T04:08:30.613Z,0
2019-03-01T04:09:40.653Z,0
2019-03-01T04:10:50.591Z,0
2019-03-01T04:12:00.297Z,0
2019-03-01T04:13:10.265Z,0
2019-03-01T04:14:20.210Z,0
2019-03-01T04:15:30.166Z,0
2019-03-01T04:16:39.899Z,0
2019-03-01T04:17:49.358Z,0
2019-03-01T04:18:59.309Z,0
2019-03-01T04:20:09.176Z,0
2019-03-01T04:21:18.876Z,0
2019-03-01T04:22:28.314Z,0
2019-03-01T04:23:37.775Z,0
2019-03-01T04:24:47.739Z,0
2019-03-01T04:25:57.442Z,0
2019-03-01T04:27:07.394Z,0
2019-03-01T04:28:17.372Z,0
2019-03-01T04:29:27.358Z,0
2019-03-01T04:30:37.080Z,0
2019-03-01T04:31:47.039Z,0
2019-03-01T04:32:56.983Z,0
2019-03-01T04:34:08.508Z,0
2019-03-01T04:35:18.509Z,0
2019-03-01T04:36:27.967Z,0
2019-03-01T04:37:37.175Z,0
2019-03-01T04:38:47.142Z,0
2019-03-01T04:39:57.085Z,0
2019-03-01T04:41:07.023Z,0
2019-03-01T04:42:16.982Z,0
2019-03-01T04:43:26.944Z,0
2019-03-01T04:44:36.883Z,0
2019-03-01T04:45:46.829Z,0
2019-03-01T04:46:56.515Z,0
2019-03-01T04:48:06.481Z,0
2019-03-01T04:49:16.431Z,0
2019-03-01T04:50:26.388Z,0
2019-03-01T04:51:44.867Z,0
2019-03-01T04:52:54.828Z,0
2019-03-01T04:54:04.770Z,0
2019-03-01T04:55:14.474Z,0
2019-03-01T04:56:26.647Z,0
2019-03-01T04:57:36.601Z,0
2019-03-01T04:58:46.070Z,0
2019-03-01T04:59:55.764Z,0
2019-03-01T05:01:05.461Z,0
2019-03-01T05:02:15.170Z,0
2019-03-01T05:03:25.134Z,0
2019-03-01T05:04:35.111Z,0
2019-03-01T05:05:44.300Z,0
2019-03-01T05:06:54.250Z,0
2019-03-01T05:08:03.929Z,0
2019-03-01T05:09:13.873Z,0
2019-03-01T05:10:23.572Z,0
2019-03-01T05:11:33.274Z,0
2019-03-01T05:12:43.243Z,0
2019-03-01T05:13:53.178Z,0
2019-03-01T05:15:02.866Z,0
2019-03-01T05:16:12.554Z,0
2019-03-01T05:17:22.504Z,0
2019-03-01T05:18:32.198Z,0
2019-03-01T05:19:41.887Z,0
2019-03-01T05:20:51.838Z,0
2019-03-01T05:22:01.300Z,0
2019-03-01T05:23:11.002Z,0
2019-03-01T05:24:20.692Z,0
2019-03-01T05:25:30.641Z,0
2019-03-01T05:26:40.584Z,0
2019-03-01T05:27:50.538Z,4
2019-03-01T05:29:00.463Z,4
2019-03-01T05:30:10.419Z,0
2019-03-01T05:31:20.368Z,4
2019-03-01T05:32:30.318Z,0
2019-03-01T05:33:40.277Z,0
2019-03-01T05:34:49.972Z,4
2019-03-01T05:35:59.929Z,8
2019-03-01T05:37:09.897Z,4
2019-03-01T05:38:28.660Z,8
2019-03-01T05:39:38.362Z,8
2019-03-01T05:40:48.048Z,12
2019-03-01T05:41:58.011Z,16
2019-03-01T05:43:07.988Z,12
2019-03-01T05:44:17.951Z,16
2019-03-01T05:45:27.895Z,16
2019-03-01T05:46:37.599Z,20
2019-03-01T05:47:47.286Z,24
2019-03-01T05:48:56.733Z,28
2019-03-01T05:50:07.067Z,28
2019-03-01T05:51:17.095Z,32
2019-03-01T05:52:26.813Z,40
2019-03-01T05:53:36.769Z,44
2019-03-01T05:54:46.726Z,56
2019-03-01T05:55:56.431Z,64
2019-03-01T05:57:06.380Z,68
2019-03-01T05:58:23.502Z,72
2019-03-01T05:59:33.212Z,84
2019-03-01T06:00:42.741Z,96
2019-03-01T06:01:52.442Z,104
2019-03-01T06:03:01.894Z,116
2019-03-01T06:04:11.335Z,136
2019-03-01T06:05:21.296Z,148
2019-03-01T06:06:32.690Z,148
2019-03-01T06:07:42.381Z,160
2019-03-01T06:08:52.333Z,196
2019-03-01T06:10:02.032Z,208
2019-03-01T06:11:11.739Z,212
2019-03-01T06:12:21.435Z,224
2019-03-01T06:13:31.369Z,224
2019-03-01T06:14:41.323Z,220
2019-03-01T06:15:51.015Z,228
2019-03-01T06:17:00.470Z,252
2019-03-01T06:18:10.445Z,264
2019-03-01T06:19:20.149Z,284
2019-03-01T06:20:30.101Z,320
2019-03-01T06:21:39.791Z,352
2019-03-01T06:22:49.735Z,364
2019-03-01T06:23:59.692Z,376
2019-03-01T06:25:09.419Z,388
2019-03-01T06:26:19.112Z,392
2019-03-01T06:27:28.551Z,372
2019-03-01T06:28:38.494Z,348
2019-03-01T06:29:47.928Z,344
2019-03-01T06:30:59.286Z,360
2019-03-01T06:32:09.251Z,380
2019-03-01T06:33:18.957Z,408
2019-03-01T06:34:28.932Z,412
2019-03-01T06:35:38.133Z,408
2019-03-01T06:36:48.134Z,404
2019-03-01T06:37:57.833Z,432
2019-03-01T06:39:07.528Z,452
2019-03-01T06:40:17.471Z,440
2019-03-01T06:41:27.169Z,424
2019-03-01T06:42:37.131Z,432
2019-03-01T06:43:47.086Z,440
2019-03-01T06:44:56.781Z,412
2019-03-01T06:46:06.736Z,380
2019-03-01T06:47:16.435Z,348
2019-03-01T06:48:26.381Z,312
2019-03-01T06:49:36.343Z,288
2019-03-01T06:50:45.805Z,288
2019-03-01T06:51:55.787Z,300
2019-03-01T06:53:05.521Z,304
2019-03-01T06:54:15.510Z,296
2019-03-01T06:55:25.463Z,276
2019-03-01T06:56:35.415Z,268
2019-03-01T06:57:45.122Z,276
2019-03-01T06:58:55.085Z,280
2019-03-01T07:00:05.154Z,288
2019-03-01T07:01:15.294Z,272
2019-03-01T07:02:25.265Z,252
2019-03-01T07:03:34.979Z,240
2019-03-01T07:04:44.935Z,244
2019-03-01T07:06:03.066Z,252
2019-03-01T07:07:13.286Z,264
2019-03-01T07:08:22.989Z,288
2019-03-01T07:09:32.938Z,300
2019-03-01T07:10:42.891Z,340
2019-03-01T07:11:52.884Z,368
2019-03-01T07:13:02.843Z,432
2019-03-01T07:14:12.300Z,488
2019-03-01T07:15:22.263Z,540
2019-03-01T07:16:32.200Z,576
2019-03-01T07:17:42.149Z,588
2019-03-01T07:18:51.900Z,596
2019-03-01T07:20:01.605Z,604
2019-03-01T07:21:11.301Z,652
2019-03-01T07:22:21.015Z,668
2019-03-01T07:23:39.141Z,640
2019-03-01T07:24:48.836Z,648
2019-03-01T07:25:59.787Z,724
2019-03-01T07:27:09.497Z,764
2019-03-01T07:28:20.095Z,660
2019-03-01T07:29:29.801Z,544
2019-03-01T07:30:39.504Z,492
2019-03-01T07:31:49.546Z,488
2019-03-01T07:32:59.525Z,508
2019-03-01T07:34:09.305Z,536
2019-03-01T07:35:19.257Z,552
2019-03-01T07:36:28.995Z,552
2019-03-01T07:37:38.973Z,504
2019-03-01T07:38:48.966Z,460
2019-03-01T07:39:58.981Z,444
2019-03-01T07:41:08.954Z,432
2019-03-01T07:42:18.672Z,432
2019-03-01T07:43:28.391Z,456
2019-03-01T07:44:38.359Z,516
2019-03-01T07:45:48.069Z,592
2019-03-01T07:47:00.527Z,604
2019-03-01T07:48:10.493Z,572
2019-03-01T07:49:19.971Z,560
2019-03-01T07:50:30.293Z,564
2019-03-01T07:51:40.878Z,556
2019-03-01T07:52:50.325Z,532
2019-03-01T07:54:00.280Z,548
2019-03-01T07:55:11.787Z,588
2019-03-01T07:56:21.253Z,608
2019-03-01T07:57:31.606Z,576
2019-03-01T07:58:41.651Z,536
2019-03-01T07:59:51.643Z,528
2019-03-01T08:01:01.959Z,548
2019-03-01T08:02:12.236Z,572
2019-03-01T08:03:23.091Z,592
2019-03-01T08:04:36.391Z,620
2019-03-01T08:05:47.587Z,636
2019-03-01T08:06:57.554Z,668
2019-03-01T08:08:10.814Z,696
2019-03-01T08:09:20.503Z,704
2019-03-01T08:10:30.478Z,716
2019-03-01T08:11:40.454Z,692
2019-03-01T08:12:52.460Z,672
2019-03-01T08:14:01.928Z,684
2019-03-01T08:15:16.220Z,692
2019-03-01T08:16:30.036Z,660
2019-03-01T08:17:40.042Z,664
2019-03-01T08:18:52.152Z,700
2019-03-01T08:20:06.488Z,756
2019-03-01T08:21:19.681Z,800
2019-03-01T08:22:33.051Z,848
2019-03-01T08:23:57.814Z,992
2019-03-01T08:25:07.817Z,1192
2019-03-01T08:26:17.797Z,1324
2019-03-01T08:27:29.801Z,1328
2019-03-01T08:28:39.527Z,1320
2019-03-01T08:29:49.509Z,1384
2019-03-01T08:30:59.465Z,1436
2019-03-01T08:32:09.417Z,1412
2019-03-01T08:33:19.391Z,1284
2019-03-01T08:34:29.160Z,1188
2019-03-01T08:35:39.509Z,1168
2019-03-01T08:36:50.750Z,1208
2019-03-01T08:38:01.412Z,1256
2019-03-01T08:39:12.918Z,1352
2019-03-01T08:40:22.678Z,1420
2019-03-01T08:41:33.247Z,1500
2019-03-01T08:42:43.721Z,1620
2019-03-01T08:43:57.121Z,1716
2019-03-01T08:45:07.502Z,1700
2019-03-01T08:46:17.703Z,1676
2019-03-01T08:47:30.807Z,1656
2019-03-01T08:48:42.009Z,1676
2019-03-01T08:49:51.980Z,1904
2019-03-01T08:51:01.924Z,2080
2019-03-01T08:52:11.662Z,2428
2019-03-01T08:53:23.209Z,2712
2019-03-01T08:54:36.001Z,3228
2019-03-01T08:55:46.686Z,3136
2019-03-01T08:56:57.563Z,2716
2019-03-01T08:58:11.995Z,2336
2019-03-01T08:59:25.346Z,2256
2019-03-01T09:00:35.150Z,2272
2019-03-01T09:01:49.410Z,2292
2019-03-01T09:02:59.119Z,2244
2019-03-01T09:04:09.110Z,2092
2019-03-01T09:05:24.479Z,1924
2019-03-01T09:06:34.439Z,1840
2019-03-01T09:07:44.388Z,1828
2019-03-01T09:08:54.358Z,1832
2019-03-01T09:10:05.189Z,1872
2019-03-01T09:11:17.148Z,1916
2019-03-01T09:12:29.416Z,1940
2019-03-01T09:13:41.094Z,1984
2019-03-01T09:14:51.078Z,2004
2019-03-01T09:16:00.822Z,1968
2019-03-01T09:17:10.812Z,1868
2019-03-01T09:18:21.627Z,1788
2019-03-01T09:19:33.211Z,1748
2019-03-01T09:20:45.730Z,1732
2019-03-01T09:21:58.100Z,1704
2019-03-01T09:23:29.762Z,1660
2019-03-01T09:24:39.732Z,1624
2019-03-01T09:25:54.382Z,1624
2019-03-01T09:27:04.362Z,1648
2019-03-01T09:28:14.074Z,1672
2019-03-01T09:29:25.816Z,1708
2019-03-01T09:30:35.798Z,1740
2019-03-01T09:31:47.765Z,1832
2019-03-01T09:32:58.239Z,1872
2019-03-01T09:34:08.690Z,1796
2019-03-01T09:35:18.659Z,1812
2019-03-01T09:36:28.768Z,1956
2019-03-01T09:37:39.820Z,2228
2019-03-01T09:38:50.487Z,2316
2019-03-01T09:40:10.314Z,2240
2019-03-01T09:41:20.047Z,2184
2019-03-01T09:42:30.032Z,2048
2019-03-01T09:43:40.004Z,1996
2019-03-01T09:44:49.741Z,1972
2019-03-01T09:45:58.699Z,2012
2019-03-01T09:47:09.859Z,1952
2019-03-01T09:48:20.209Z,1756
2019-03-01T09:49:32.326Z,1592
2019-03-01T09:50:45.215Z,1584
2019-03-01T09:51:57.216Z,1668
2019-03-01T09:53:06.972Z,1704
2019-03-01T09:54:17.484Z,1692
2019-03-01T09:55:27.207Z,1644
2019-03-01T09:56:37.188Z,1584
2019-03-01T09:57:46.930Z,1568
2019-03-01T09:58:56.634Z,1620
2019-03-01T10:00:06.392Z,1624
2019-03-01T10:01:16.143Z,1664
2019-03-01T10:02:25.892Z,1684
2019-03-01T10:03:35.870Z,1532
2019-03-01T10:04:45.840Z,1412
2019-03-01T10:05:55.294Z,1416
2019-03-01T10:07:05.358Z,1484
2019-03-01T10:08:15.071Z,1556
2019-03-01T10:09:24.893Z,1772
2019-03-01T10:10:34.424Z,1984
2019-03-01T10:11:43.916Z,2192
2019-03-01T10:12:53.889Z,2240
2019-03-01T10:14:03.633Z,2332
2019-03-01T10:15:13.595Z,2700
2019-03-01T10:16:23.307Z,2892
2019-03-01T10:17:33.280Z,2932
2019-03-01T10:18:43.247Z,2700
2019-03-01T10:19:53.241Z,2500
2019-03-01T10:21:03.214Z,2460
2019-03-01T10:22:12.912Z,2428
2019-03-01T10:23:22.358Z,2596
2019-03-01T10:24:32.306Z,2732
2019-03-01T10:25:42.343Z,2752
2019-03-01T10:26:52.338Z,2936
2019-03-01T10:28:02.079Z,3012
2019-03-01T10:29:11.846Z,2928
2019-03-01T10:30:21.299Z,2716
2019-03-01T10:31:31.264Z,2576
2019-03-01T10:32:40.980Z,2556
2019-03-01T10:33:50.931Z,2696
2019-03-01T10:35:00.897Z,2868
2019-03-01T10:36:10.871Z,2820
2019-03-01T10:37:20.826Z,2720
2019-03-01T10:38:30.783Z,2788
2019-03-01T10:39:40.749Z,2804
2019-03-01T10:40:50.701Z,2676
2019-03-01T10:42:00.670Z,2604
2019-03-01T10:43:10.375Z,2552
2019-03-01T10:44:20.323Z,2484
2019-03-01T10:45:30.329Z,2448
2019-03-01T10:46:40.285Z,2344
2019-03-01T10:47:49.987Z,2284
2019-03-01T10:48:59.935Z,2264
2019-03-01T10:50:09.885Z,2244
2019-03-01T10:51:19.348Z,2248
2019-03-01T10:52:28.831Z,2192
2019-03-01T10:53:38.823Z,2056
2019-03-01T10:54:48.555Z,1980
2019-03-01T10:55:58.524Z,1972
2019-03-01T10:57:08.237Z,1996
2019-03-01T10:58:18.187Z,2064
2019-03-01T10:59:27.892Z,2156
2019-03-01T11:00:37.902Z,2204
2019-03-01T11:01:48.016Z,2128
2019-03-01T11:02:57.971Z,1940
2019-03-01T11:04:07.692Z,1776
2019-03-01T11:05:17.680Z,1676
2019-03-01T11:06:27.651Z,1488
2019-03-01T11:07:37.630Z,1256
2019-03-01T11:08:47.616Z,1096
2019-03-01T11:09:57.574Z,1072
2019-03-01T11:11:06.871Z,1184
2019-03-01T11:12:16.890Z,1384
2019-03-01T11:13:26.849Z,1536
2019-03-01T11:14:36.567Z,1644
2019-03-01T11:15:46.833Z,1732
2019-03-01T11:16:57.568Z,1768
2019-03-01T11:18:07.266Z,1760
2019-03-01T11:19:16.994Z,1736
2019-03-01T11:20:26.955Z,1728
2019-03-01T11:21:37.133Z,1704
2019-03-01T11:22:47.123Z,1776
2019-03-01T11:23:57.099Z,1952
2019-03-01T11:25:06.592Z,2108
2019-03-01T11:26:16.537Z,2200
2019-03-01T11:27:26.506Z,2252
2019-03-01T11:28:35.962Z,2116
2019-03-01T11:29:45.909Z,1808
2019-03-01T11:30:55.864Z,1540
2019-03-01T11:32:05.826Z,1372
2019-03-01T11:33:15.532Z,1332
2019-03-01T11:34:24.981Z,1420
2019-03-01T11:35:34.957Z,1532
2019-03-01T11:36:44.929Z,1616
2019-03-01T11:37:54.387Z,1644
2019-03-01T11:39:04.095Z,1588
2019-03-01T11:40:13.830Z,1552
2019-03-01T11:41:23.791Z,1576
2019-03-01T11:42:33.773Z,1672
2019-03-01T11:43:43.733Z,1880
2019-03-01T11:44:53.689Z,2236
2019-03-01T11:46:05.506Z,2564
2019-03-01T11:47:15.235Z,2724
2019-03-01T11:48:25.221Z,2796
2019-03-01T11:49:35.183Z,2928
2019-03-01T11:50:45.131Z,3076
2019-03-01T11:51:55.095Z,2992
2019-03-01T11:53:05.095Z,2700
2019-03-01T11:54:15.057Z,2568
2019-03-01T11:55:24.995Z,2652
2019-03-01T11:56:34.957Z,2832
2019-03-01T11:57:44.695Z,2852
2019-03-01T11:58:54.672Z,2708
2019-03-01T12:00:04.407Z,2676
2019-03-01T12:01:24.029Z,2836
2019-03-01T12:02:33.477Z,3080
2019-03-01T12:03:43.494Z,3320
2019-03-01T12:04:53.442Z,3348
2019-03-01T12:06:03.180Z,3496
2019-03-01T12:07:13.157Z,3792
2019-03-01T12:08:23.151Z,3760
2019-03-01T12:09:33.139Z,3332
2019-03-01T12:10:43.095Z,3420
2019-03-01T12:11:52.816Z,3700
2019-03-01T12:13:02.769Z,3628
2019-03-01T12:14:12.231Z,3652
2019-03-01T12:15:22.194Z,3728
2019-03-01T12:16:32.166Z,3408
2019-03-01T12:17:41.865Z,2824
2019-03-01T12:18:51.830Z,2300
2019-03-01T12:20:01.792Z,2176
2019-03-01T12:21:11.245Z,2196
2019-03-01T12:22:24.475Z,2200
2019-03-01T12:23:34.421Z,2492
2019-03-01T12:24:44.379Z,2816
2019-03-01T12:25:54.095Z,3012
2019-03-01T12:27:03.830Z,2984
2019-03-01T12:28:13.535Z,2900
2019-03-01T12:29:23.494Z,2876
2019-03-01T12:30:33.480Z,2924
2019-03-01T12:31:43.425Z,2936
2019-03-01T12:32:52.867Z,3028
2019-03-01T12:34:02.574Z,3148
2019-03-01T12:35:12.313Z,3256
2019-03-01T12:36:22.303Z,3244
2019-03-01T12:37:32.257Z,3132
2019-03-01T12:38:42.223Z,3100
2019-03-01T12:39:51.677Z,3156
2019-03-01T12:41:01.380Z,3212
2019-03-01T12:42:11.358Z,3228
2019-03-01T12:43:21.299Z,3260
2019-03-01T12:44:31.261Z,3200
2019-03-01T12:45:40.959Z,2948
2019-03-01T12:46:50.897Z,2712
2019-03-01T12:48:00.862Z,2560
2019-03-01T12:49:10.817Z,2404
2019-03-01T12:50:20.767Z,2312
2019-03-01T12:51:30.227Z,2316
2019-03-01T12:52:40.181Z,2348
2019-03-01T12:53:49.635Z,2364
2019-03-01T12:54:59.584Z,2352
2019-03-01T12:56:09.550Z,2300
2019-03-01T12:57:19.498Z,2244
2019-03-01T12:58:28.952Z,2256
2019-03-01T12:59:38.894Z,2388
2019-03-01T13:00:48.843Z,2448
2019-03-01T13:01:58.077Z,2464
2019-03-01T13:03:11.588Z,2388
2019-03-01T13:04:23.466Z,2168
2019-03-01T13:05:36.951Z,2112
2019-03-01T13:06:47.122Z,2124
2019-03-01T13:07:58.964Z,2116
2019-03-01T13:09:08.934Z,2136
2019-03-01T13:10:19.508Z,2092
2019-03-01T13:11:29.460Z,2016
2019-03-01T13:12:38.901Z,1996
2019-03-01T13:13:48.599Z,2008
2019-03-01T13:14:58.563Z,1988
2019-03-01T13:16:08.263Z,1948
2019-03-01T13:17:18.222Z,1924
2019-03-01T13:18:27.923Z,1892
2019-03-01T13:19:37.887Z,1836
2019-03-01T13:20:47.597Z,1768
2019-03-01T13:21:57.563Z,1728
2019-03-01T13:23:10.689Z,1720
2019-03-01T13:24:24.327Z,1728
2019-03-01T13:25:37.224Z,1776
2019-03-01T13:26:48.475Z,1872
2019-03-01T13:27:59.550Z,1940
2019-03-01T13:29:09.257Z,1916
2019-03-01T13:30:18.720Z,1848
2019-03-01T13:31:28.406Z,1760
2019-03-01T13:32:38.357Z,1700
2019-03-01T13:33:48.307Z,1688
2019-03-01T13:34:58.250Z,1708
2019-03-01T13:36:13.236Z,1780
2019-03-01T13:37:27.411Z,1800
2019-03-01T13:38:40.863Z,1796
2019-03-01T13:39:55.205Z,1752
2019-03-01T13:41:07.677Z,1692
2019-03-01T13:42:20.612Z,1696
2019-03-01T13:43:33.306Z,1796
2019-03-01T13:44:47.535Z,1776
2019-03-01T13:46:00.320Z,1768
2019-03-01T13:47:15.417Z,1824
2019-03-01T13:48:26.310Z,1928
2019-03-01T13:49:37.728Z,2196
2019-03-01T13:50:49.437Z,2804
2019-03-01T13:52:00.694Z,2960
2019-03-01T13:53:11.434Z,2736
2019-03-01T13:54:21.552Z,2304
2019-03-01T13:55:32.508Z,2628
2019-03-01T13:56:42.986Z,2704
2019-03-01T13:57:56.579Z,2852
2019-03-01T13:59:09.750Z,2872
2019-03-01T14:00:19.715Z,2584
2019-03-01T14:01:33.935Z,2716
2019-03-01T14:02:46.825Z,2608
2019-03-01T14:03:59.635Z,2824
2019-03-01T14:05:16.908Z,3052
2019-03-01T14:06:27.197Z,2588
2019-03-01T14:07:36.684Z,2296
2019-03-01T14:08:46.192Z,2412
2019-03-01T14:09:55.878Z,2708
2019-03-01T14:11:08.591Z,2752
2019-03-01T14:12:18.319Z,3220
2019-03-01T14:13:29.233Z,3568
2019-03-01T14:14:39.321Z,3212
2019-03-01T14:15:50.491Z,3644
2019-03-01T14:17:00.306Z,4264
2019-03-01T14:18:10.281Z,4724
2019-03-01T14:19:19.979Z,5340
2019-03-01T14:20:29.954Z,5720
2019-03-01T14:21:40.312Z,6140
2019-03-01T14:22:54.501Z,6584
2019-03-01T14:24:04.458Z,7500
2019-03-01T14:25:14.399Z,8880
2019-03-01T14:26:26.398Z,8668
2019-03-01T14:27:37.435Z,7392
2019-03-01T14:28:49.113Z,5940
2019-03-01T14:30:00.822Z,5216
2019-03-01T14:31:14.703Z,5292
2019-03-01T14:32:28.154Z,5848
2019-03-01T14:33:40.370Z,6708
2019-03-01T14:34:54.980Z,23552
2019-03-01T14:36:08.364Z,7084
2019-03-01T14:37:21.664Z,8020
2019-03-01T14:38:35.688Z,9156
2019-03-01T14:39:49.749Z,9692
2019-03-01T14:41:03.959Z,7708
2019-03-01T14:42:17.767Z,5540
2019-03-01T14:43:31.986Z,5056
2019-03-01T14:44:41.951Z,4988
2019-03-01T14:45:52.766Z,4996
2019-03-01T14:47:04.110Z,4680
2019-03-01T14:48:16.643Z,4184
2019-03-01T14:49:29.760Z,3916
2019-03-01T14:50:41.395Z,3612
2019-03-01T14:51:54.726Z,3480
2019-03-01T14:53:06.228Z,3468
2019-03-01T14:54:17.136Z,3296
2019-03-01T14:55:31.031Z,3108
2019-03-01T14:56:42.766Z,2980
2019-03-01T14:57:53.507Z,2932
2019-03-01T14:59:05.889Z,2852
2019-03-01T15:00:19.272Z,2628
2019-03-01T15:01:33.448Z,2496
2019-03-01T15:02:46.758Z,2432
2019-03-01T15:04:00.515Z,2464
2019-03-01T15:05:23.522Z,2684
2019-03-01T15:06:33.233Z,2532
2019-03-01T15:07:44.872Z,2236
2019-03-01T15:08:54.834Z,2196
2019-03-01T15:10:05.412Z,2216
2019-03-01T15:11:16.409Z,2244
2019-03-01T15:12:28.044Z,2192
2019-03-01T15:13:39.502Z,2232
2019-03-01T15:14:54.546Z,2308
2019-03-01T15:16:08.979Z,2384
2019-03-01T15:17:21.640Z,2536
2019-03-01T15:18:36.486Z,2644
2019-03-01T15:19:51.408Z,2756
2019-03-01T15:21:07.329Z,2772
2019-03-01T15:22:20.945Z,2684
2019-03-01T15:23:31.708Z,2448
2019-03-01T15:24:44.018Z,2176
2019-03-01T15:25:55.739Z,2036
2019-03-01T15:27:09.735Z,1848
2019-03-01T15:28:21.239Z,1676
2019-03-01T15:29:36.554Z,1540
2019-03-01T15:30:52.148Z,1432
2019-03-01T15:32:03.280Z,1372
2019-03-01T15:33:17.103Z,1404
2019-03-01T15:34:30.711Z,1364
2019-03-01T15:35:44.591Z,1292
2019-03-01T15:36:59.343Z,1160
2019-03-01T15:38:10.833Z,1088
2019-03-01T15:39:25.517Z,1040
2019-03-01T15:40:39.282Z,988
2019-03-01T15:41:50.230Z,960
2019-03-01T15:43:01.965Z,928
2019-03-01T15:44:11.655Z,868
2019-03-01T15:45:21.350Z,812
2019-03-01T15:46:31.320Z,784
2019-03-01T15:47:41.277Z,728
2019-03-01T15:48:51.240Z,740
2019-03-01T15:50:00.950Z,768
2019-03-01T15:51:11.610Z,792
2019-03-01T15:52:23.321Z,792
2019-03-01T15:53:33.307Z,760
2019-03-01T15:54:43.431Z,724
2019-03-01T15:55:53.377Z,668
2019-03-01T15:57:03.089Z,648
2019-03-01T15:58:13.039Z,644
2019-03-01T15:59:22.738Z,624
2019-03-01T16:00:37.186Z,600
2019-03-01T16:01:50.374Z,588
2019-03-01T16:03:00.978Z,580
2019-03-01T16:04:10.711Z,572
2019-03-01T16:05:20.167Z,552
2019-03-01T16:06:30.129Z,540
2019-03-01T16:07:40.654Z,544
2019-03-01T16:08:54.570Z,524
2019-03-01T16:10:07.910Z,484
2019-03-01T16:11:19.958Z,448
2019-03-01T16:12:32.211Z,432
2019-03-01T16:13:47.674Z,432
2019-03-01T16:15:00.465Z,404
2019-03-01T16:16:15.709Z,376
2019-03-01T16:17:29.254Z,344
2019-03-01T16:18:44.600Z,316
2019-03-01T16:19:59.598Z,296
2019-03-01T16:21:12.506Z,268